sensor_id;sensor_type;location;lat;lon;timestamp;P1;durP1;ratioP1;P2;durP2;ratioP2
39750;SDS011;37579;51.074;17.004;2023-05-07T00:01:58;3.20;;;1.33;;
39750;SDS011;37579;51.074;17.004;2023-05-07T00:04:24;2.85;;;1.25;;
39750;SDS011;37579;51.074;17.004;2023-05-07T00:06:50;1.55;;;1.20;;
39750;SDS011;37579;51.074;17.004;2023-05-07T00:09:16;1.83;;;1.17;;
39750;SDS011;37579;51.074;17.004;2023-05-07T00:11:42;1.83;;;1.10;;
39750;SDS011;37579;51.074;17.004;2023-05-07T00:14:07;1.85;;;1.30;;
39750;SDS011;37579;51.074;17.004;2023-05-07T00:16:33;2.63;;;1.27;;
39750;SDS011;37579;51.074;17.004;2023-05-07T00:18:59;4.18;;;1.50;;
39750;SDS011;37579;51.074;17.004;2023-05-07T00:21:25;2.45;;;1.20;;
39750;SDS011;37579;51.074;17.004;2023-05-07T00:23:54;2.33;;;1.35;;
39750;SDS011;37579;51.074;17.004;2023-05-07T00:26:20;2.47;;;1.10;;
39750;SDS011;37579;51.074;17.004;2023-05-07T00:28:48;2.13;;;1.10;;
39750;SDS011;37579;51.074;17.004;2023-05-07T00:31:14;2.88;;;1.10;;
39750;SDS011;37579;51.074;17.004;2023-05-07T00:33:40;2.08;;;0.95;;
39750;SDS011;37579;51.074;17.004;2023-05-07T00:36:06;2.85;;;1.05;;
39750;SDS011;37579;51.074;17.004;2023-05-07T00:38:32;2.42;;;1.27;;
39750;SDS011;37579;51.074;17.004;2023-05-07T00:40:58;2.70;;;1.15;;
39750;SDS011;37579;51.074;17.004;2023-05-07T00:43:24;1.45;;;1.00;;
39750;SDS011;37579;51.074;17.004;2023-05-07T00:45:49;1.85;;;1.30;;
39750;SDS011;37579;51.074;17.004;2023-05-07T00:48:15;1.95;;;1.00;;
39750;SDS011;37579;51.074;17.004;2023-05-07T00:50:41;1.88;;;0.90;;
39750;SDS011;37579;51.074;17.004;2023-05-07T00:53:07;3.08;;;1.30;;
39750;SDS011;37579;51.074;17.004;2023-05-07T00:55:34;1.98;;;0.90;;
39750;SDS011;37579;51.074;17.004;2023-05-07T00:58:01;1.60;;;0.93;;
39750;SDS011;37579;51.074;17.004;2023-05-07T01:00:27;2.10;;;1.17;;
39750;SDS011;37579;51.074;17.004;2023-05-07T01:02:53;1.73;;;1.02;;
39750;SDS011;37579;51.074;17.004;2023-05-07T01:05:19;1.75;;;1.05;;
39750;SDS011;37579;51.074;17.004;2023-05-07T01:07:48;2.03;;;1.05;;
39750;SDS011;37579;51.074;17.004;2023-05-07T01:10:15;1.70;;;0.90;;
39750;SDS011;37579;51.074;17.004;2023-05-07T01:12:42;2.15;;;1.02;;
39750;SDS011;37579;51.074;17.004;2023-05-07T01:15:09;2.03;;;0.90;;
39750;SDS011;37579;51.074;17.004;2023-05-07T01:17:36;2.03;;;0.95;;
39750;SDS011;37579;51.074;17.004;2023-05-07T01:20:05;1.80;;;1.13;;
39750;SDS011;37579;51.074;17.004;2023-05-07T01:22:33;1.98;;;1.00;;
39750;SDS011;37579;51.074;17.004;2023-05-07T01:25:01;1.63;;;0.90;;
39750;SDS011;37579;51.074;17.004;2023-05-07T01:27:31;2.67;;;0.98;;
39750;SDS011;37579;51.074;17.004;2023-05-07T01:29:59;1.73;;;0.95;;
39750;SDS011;37579;51.074;17.004;2023-05-07T01:33:09;3.33;;;1.27;;
39750;SDS011;37579;51.074;17.004;2023-05-07T01:35:18;2.47;;;0.85;;
39750;SDS011;37579;51.074;17.004;2023-05-07T01:37:46;1.85;;;0.80;;
39750;SDS011;37579;51.074;17.004;2023-05-07T01:40:13;1.38;;;0.90;;
39750;SDS011;37579;51.074;17.004;2023-05-07T01:42:39;1.30;;;0.80;;
39750;SDS011;37579;51.074;17.004;2023-05-07T01:45:07;2.55;;;1.00;;
39750;SDS011;37579;51.074;17.004;2023-05-07T01:47:33;1.92;;;1.08;;
39750;SDS011;37579;51.074;17.004;2023-05-07T01:49:59;1.73;;;1.00;;
39750;SDS011;37579;51.074;17.004;2023-05-07T01:52:25;1.88;;;1.00;;
39750;SDS011;37579;51.074;17.004;2023-05-07T01:54:52;1.20;;;0.93;;
39750;SDS011;37579;51.074;17.004;2023-05-07T01:57:18;1.30;;;0.98;;
39750;SDS011;37579;51.074;17.004;2023-05-07T01:59:44;1.40;;;0.82;;
39750;SDS011;37579;51.074;17.004;2023-05-07T02:02:10;2.58;;;0.88;;
39750;SDS011;37579;51.074;17.004;2023-05-07T02:04:39;1.30;;;0.93;;
39750;SDS011;37579;51.074;17.004;2023-05-07T02:07:05;1.48;;;0.93;;
39750;SDS011;37579;51.074;17.004;2023-05-07T02:09:31;1.80;;;1.15;;
39750;SDS011;37579;51.074;17.004;2023-05-07T02:11:57;1.20;;;0.80;;
39750;SDS011;37579;51.074;17.004;2023-05-07T02:14:23;1.08;;;0.90;;
39750;SDS011;37579;51.074;17.004;2023-05-07T02:16:51;0.90;;;0.70;;
39750;SDS011;37579;51.074;17.004;2023-05-07T02:19:17;1.45;;;1.00;;
39750;SDS011;37579;51.074;17.004;2023-05-07T02:21:43;1.77;;;0.77;;
39750;SDS011;37579;51.074;17.004;2023-05-07T02:24:09;1.13;;;0.82;;
39750;SDS011;37579;51.074;17.004;2023-05-07T02:26:34;1.33;;;0.85;;
39750;SDS011;37579;51.074;17.004;2023-05-07T02:29:00;1.33;;;0.80;;
39750;SDS011;37579;51.074;17.004;2023-05-07T02:31:26;0.82;;;0.55;;
39750;SDS011;37579;51.074;17.004;2023-05-07T02:33:52;1.52;;;0.80;;
39750;SDS011;37579;51.074;17.004;2023-05-07T02:36:18;2.03;;;0.80;;
39750;SDS011;37579;51.074;17.004;2023-05-07T02:38:50;1.27;;;0.70;;
39750;SDS011;37579;51.074;17.004;2023-05-07T02:41:16;1.90;;;1.17;;
39750;SDS011;37579;51.074;17.004;2023-05-07T02:43:41;1.15;;;0.68;;
39750;SDS011;37579;51.074;17.004;2023-05-07T02:46:08;1.80;;;0.80;;
39750;SDS011;37579;51.074;17.004;2023-05-07T02:48:38;1.25;;;1.00;;
39750;SDS011;37579;51.074;17.004;2023-05-07T02:51:04;1.45;;;0.80;;
39750;SDS011;37579;51.074;17.004;2023-05-07T02:53:31;0.73;;;0.70;;
39750;SDS011;37579;51.074;17.004;2023-05-07T02:55:58;1.70;;;0.80;;
39750;SDS011;37579;51.074;17.004;2023-05-07T02:58:25;1.48;;;0.82;;
39750;SDS011;37579;51.074;17.004;2023-05-07T03:00:52;1.85;;;1.00;;
39750;SDS011;37579;51.074;17.004;2023-05-07T03:03:46;1.00;;;0.80;;
39750;SDS011;37579;51.074;17.004;2023-05-07T03:06:12;0.75;;;0.70;;
39750;SDS011;37579;51.074;17.004;2023-05-07T03:08:37;1.15;;;0.85;;
39750;SDS011;37579;51.074;17.004;2023-05-07T03:11:03;0.90;;;0.75;;
39750;SDS011;37579;51.074;17.004;2023-05-07T03:13:29;1.30;;;0.80;;
39750;SDS011;37579;51.074;17.004;2023-05-07T03:15:55;1.55;;;0.90;;
39750;SDS011;37579;51.074;17.004;2023-05-07T03:18:21;2.00;;;0.73;;
39750;SDS011;37579;51.074;17.004;2023-05-07T03:20:47;1.67;;;0.93;;
39750;SDS011;37579;51.074;17.004;2023-05-07T03:23:15;0.88;;;0.52;;
39750;SDS011;37579;51.074;17.004;2023-05-07T03:25:40;1.15;;;0.90;;
39750;SDS011;37579;51.074;17.004;2023-05-07T03:28:06;1.25;;;0.93;;
39750;SDS011;37579;51.074;17.004;2023-05-07T03:30:38;1.17;;;0.98;;
39750;SDS011;37579;51.074;17.004;2023-05-07T03:33:04;0.95;;;0.85;;
39750;SDS011;37579;51.074;17.004;2023-05-07T03:35:30;1.23;;;0.70;;
39750;SDS011;37579;51.074;17.004;2023-05-07T03:37:56;1.25;;;0.80;;
39750;SDS011;37579;51.074;17.004;2023-05-07T03:40:22;0.60;;;0.55;;
39750;SDS011;37579;51.074;17.004;2023-05-07T03:42:51;1.23;;;0.70;;
39750;SDS011;37579;51.074;17.004;2023-05-07T03:45:19;1.00;;;0.80;;
39750;SDS011;37579;51.074;17.004;2023-05-07T03:47:52;1.52;;;0.80;;
39750;SDS011;37579;51.074;17.004;2023-05-07T03:50:20;1.55;;;0.70;;
39750;SDS011;37579;51.074;17.004;2023-05-07T03:52:46;1.67;;;0.90;;
39750;SDS011;37579;51.074;17.004;2023-05-07T03:55:14;1.10;;;0.57;;
39750;SDS011;37579;51.074;17.004;2023-05-07T03:57:46;1.05;;;0.88;;
39750;SDS011;37579;51.074;17.004;2023-05-07T04:00:12;0.88;;;0.65;;
39750;SDS011;37579;51.074;17.004;2023-05-07T04:02:47;0.80;;;0.55;;
39750;SDS011;37579;51.074;17.004;2023-05-07T04:05:18;1.25;;;0.70;;
39750;SDS011;37579;51.074;17.004;2023-05-07T04:07:47;1.70;;;0.90;;
39750;SDS011;37579;51.074;17.004;2023-05-07T04:10:16;1.95;;;1.05;;
39750;SDS011;37579;51.074;17.004;2023-05-07T04:12:44;0.93;;;0.70;;
39750;SDS011;37579;51.074;17.004;2023-05-07T04:15:15;1.10;;;0.70;;
39750;SDS011;37579;51.074;17.004;2023-05-07T04:17:41;1.20;;;0.70;;
39750;SDS011;37579;51.074;17.004;2023-05-07T04:20:10;1.65;;;0.77;;
39750;SDS011;37579;51.074;17.004;2023-05-07T04:22:40;1.00;;;0.60;;
39750;SDS011;37579;51.074;17.004;2023-05-07T04:25:06;1.00;;;0.77;;
39750;SDS011;37579;51.074;17.004;2023-05-07T04:27:35;1.15;;;0.98;;
39750;SDS011;37579;51.074;17.004;2023-05-07T04:30:02;1.70;;;0.80;;
39750;SDS011;37579;51.074;17.004;2023-05-07T04:32:33;0.70;;;0.60;;
39750;SDS011;37579;51.074;17.004;2023-05-07T04:34:58;1.67;;;0.60;;
39750;SDS011;37579;51.074;17.004;2023-05-07T04:37:25;1.02;;;0.65;;
39750;SDS011;37579;51.074;17.004;2023-05-07T04:39:52;0.75;;;0.65;;
39750;SDS011;37579;51.074;17.004;2023-05-07T04:42:18;0.90;;;0.60;;
39750;SDS011;37579;51.074;17.004;2023-05-07T04:44:44;0.55;;;0.50;;
39750;SDS011;37579;51.074;17.004;2023-05-07T04:47:11;1.05;;;0.77;;
39750;SDS011;37579;51.074;17.004;2023-05-07T04:49:38;0.82;;;0.60;;
39750;SDS011;37579;51.074;17.004;2023-05-07T04:52:04;0.73;;;0.55;;
39750;SDS011;37579;51.074;17.004;2023-05-07T04:54:31;1.50;;;0.82;;
39750;SDS011;37579;51.074;17.004;2023-05-07T04:56:57;0.98;;;0.70;;
39750;SDS011;37579;51.074;17.004;2023-05-07T04:59:23;1.02;;;0.70;;
39750;SDS011;37579;51.074;17.004;2023-05-07T05:01:49;1.05;;;0.70;;
39750;SDS011;37579;51.074;17.004;2023-05-07T05:04:15;1.02;;;0.60;;
39750;SDS011;37579;51.074;17.004;2023-05-07T05:06:41;1.30;;;0.70;;
39750;SDS011;37579;51.074;17.004;2023-05-07T05:09:09;0.70;;;0.50;;
39750;SDS011;37579;51.074;17.004;2023-05-07T05:11:35;0.82;;;0.60;;
39750;SDS011;37579;51.074;17.004;2023-05-07T05:14:01;1.10;;;0.57;;
39750;SDS011;37579;51.074;17.004;2023-05-07T05:16:27;1.02;;;0.70;;
39750;SDS011;37579;51.074;17.004;2023-05-07T05:18:53;0.82;;;0.55;;
39750;SDS011;37579;51.074;17.004;2023-05-07T05:21:20;0.98;;;0.55;;
39750;SDS011;37579;51.074;17.004;2023-05-07T05:23:49;1.08;;;0.80;;
39750;SDS011;37579;51.074;17.004;2023-05-07T05:26:19;1.00;;;0.70;;
39750;SDS011;37579;51.074;17.004;2023-05-07T05:28:46;1.15;;;0.60;;
39750;SDS011;37579;51.074;17.004;2023-05-07T05:31:14;0.80;;;0.60;;
39750;SDS011;37579;51.074;17.004;2023-05-07T05:33:40;1.00;;;0.60;;
39750;SDS011;37579;51.074;17.004;2023-05-07T05:36:08;1.90;;;0.70;;
39750;SDS011;37579;51.074;17.004;2023-05-07T05:38:36;0.88;;;0.70;;
39750;SDS011;37579;51.074;17.004;2023-05-07T05:41:02;1.02;;;0.60;;
39750;SDS011;37579;51.074;17.004;2023-05-07T05:43:29;1.52;;;0.70;;
39750;SDS011;37579;51.074;17.004;2023-05-07T05:45:55;0.95;;;0.52;;
39750;SDS011;37579;51.074;17.004;2023-05-07T05:48:22;1.05;;;0.70;;
39750;SDS011;37579;51.074;17.004;2023-05-07T05:50:48;1.08;;;0.70;;
39750;SDS011;37579;51.074;17.004;2023-05-07T05:53:16;0.95;;;0.70;;
39750;SDS011;37579;51.074;17.004;2023-05-07T05:55:42;0.80;;;0.50;;
39750;SDS011;37579;51.074;17.004;2023-05-07T05:58:09;0.82;;;0.60;;
39750;SDS011;37579;51.074;17.004;2023-05-07T06:00:39;0.95;;;0.60;;
39750;SDS011;37579;51.074;17.004;2023-05-07T06:03:06;0.70;;;0.50;;
39750;SDS011;37579;51.074;17.004;2023-05-07T06:05:33;0.80;;;0.52;;
39750;SDS011;37579;51.074;17.004;2023-05-07T06:07:58;0.82;;;0.60;;
39750;SDS011;37579;51.074;17.004;2023-05-07T06:10:29;0.90;;;0.63;;
39750;SDS011;37579;51.074;17.004;2023-05-07T06:12:55;0.98;;;0.75;;
39750;SDS011;37579;51.074;17.004;2023-05-07T06:15:21;0.63;;;0.50;;
39750;SDS011;37579;51.074;17.004;2023-05-07T06:17:47;0.82;;;0.60;;
39750;SDS011;37579;51.074;17.004;2023-05-07T06:20:14;0.75;;;0.65;;
39750;SDS011;37579;51.074;17.004;2023-05-07T06:22:40;1.15;;;0.65;;
39750;SDS011;37579;51.074;17.004;2023-05-07T06:25:08;3.72;;;0.90;;
39750;SDS011;37579;51.074;17.004;2023-05-07T06:27:35;1.27;;;0.50;;
39750;SDS011;37579;51.074;17.004;2023-05-07T06:30:00;0.85;;;0.57;;
39750;SDS011;37579;51.074;17.004;2023-05-07T06:32:26;1.23;;;0.50;;
39750;SDS011;37579;51.074;17.004;2023-05-07T06:34:54;1.00;;;0.50;;
39750;SDS011;37579;51.074;17.004;2023-05-07T06:37:20;0.80;;;0.65;;
39750;SDS011;37579;51.074;17.004;2023-05-07T06:39:56;0.88;;;0.60;;
39750;SDS011;37579;51.074;17.004;2023-05-07T06:42:22;0.80;;;0.45;;
39750;SDS011;37579;51.074;17.004;2023-05-07T06:44:49;0.70;;;0.47;;
39750;SDS011;37579;51.074;17.004;2023-05-07T06:47:16;0.82;;;0.57;;
39750;SDS011;37579;51.074;17.004;2023-05-07T06:49:45;0.50;;;0.40;;
39750;SDS011;37579;51.074;17.004;2023-05-07T06:52:14;1.33;;;0.60;;
39750;SDS011;37579;51.074;17.004;2023-05-07T06:54:41;0.70;;;0.50;;
39750;SDS011;37579;51.074;17.004;2023-05-07T06:57:07;0.77;;;0.50;;
39750;SDS011;37579;51.074;17.004;2023-05-07T06:59:34;1.00;;;0.55;;
39750;SDS011;37579;51.074;17.004;2023-05-07T07:02:00;0.90;;;0.70;;
39750;SDS011;37579;51.074;17.004;2023-05-07T07:04:26;0.90;;;0.52;;
39750;SDS011;37579;51.074;17.004;2023-05-07T07:06:59;0.60;;;0.40;;
39750;SDS011;37579;51.074;17.004;2023-05-07T07:09:25;1.20;;;0.60;;
39750;SDS011;37579;51.074;17.004;2023-05-07T07:12:10;1.00;;;0.57;;
39750;SDS011;37579;51.074;17.004;2023-05-07T07:14:38;1.67;;;0.88;;
39750;SDS011;37579;51.074;17.004;2023-05-07T07:17:04;0.55;;;0.50;;
39750;SDS011;37579;51.074;17.004;2023-05-07T07:19:30;0.85;;;0.60;;
39750;SDS011;37579;51.074;17.004;2023-05-07T07:21:57;3.53;;;0.77;;
39750;SDS011;37579;51.074;17.004;2023-05-07T07:24:23;2.05;;;0.43;;
39750;SDS011;37579;51.074;17.004;2023-05-07T07:26:53;0.75;;;0.50;;
39750;SDS011;37579;51.074;17.004;2023-05-07T07:29:21;0.88;;;0.63;;
39750;SDS011;37579;51.074;17.004;2023-05-07T07:31:48;1.00;;;0.68;;
39750;SDS011;37579;51.074;17.004;2023-05-07T07:34:18;1.10;;;0.80;;
39750;SDS011;37579;51.074;17.004;2023-05-07T07:36:44;0.40;;;0.40;;
39750;SDS011;37579;51.074;17.004;2023-05-07T07:39:10;0.80;;;0.60;;
39750;SDS011;37579;51.074;17.004;2023-05-07T07:41:36;1.20;;;0.60;;
39750;SDS011;37579;51.074;17.004;2023-05-07T07:44:03;0.80;;;0.60;;
39750;SDS011;37579;51.074;17.004;2023-05-07T07:46:33;0.40;;;0.40;;
39750;SDS011;37579;51.074;17.004;2023-05-07T07:49:00;1.92;;;0.60;;
39750;SDS011;37579;51.074;17.004;2023-05-07T07:51:25;0.90;;;0.73;;
39750;SDS011;37579;51.074;17.004;2023-05-07T07:53:52;1.15;;;0.60;;
39750;SDS011;37579;51.074;17.004;2023-05-07T07:56:17;0.93;;;0.50;;
39750;SDS011;37579;51.074;17.004;2023-05-07T07:58:43;0.70;;;0.45;;
39750;SDS011;37579;51.074;17.004;2023-05-07T08:01:10;0.70;;;0.50;;
39750;SDS011;37579;51.074;17.004;2023-05-07T08:03:37;1.80;;;0.35;;
39750;SDS011;37579;51.074;17.004;2023-05-07T08:06:03;0.70;;;0.45;;
39750;SDS011;37579;51.074;17.004;2023-05-07T08:08:31;0.50;;;0.35;;
39750;SDS011;37579;51.074;17.004;2023-05-07T08:10:57;2.38;;;0.40;;
39750;SDS011;37579;51.074;17.004;2023-05-07T08:13:27;1.38;;;0.60;;
39750;SDS011;37579;51.074;17.004;2023-05-07T08:15:53;1.15;;;0.57;;
39750;SDS011;37579;51.074;17.004;2023-05-07T08:18:19;1.40;;;0.68;;
39750;SDS011;37579;51.074;17.004;2023-05-07T08:20:45;0.82;;;0.47;;
39750;SDS011;37579;51.074;17.004;2023-05-07T08:23:15;1.05;;;0.50;;
39750;SDS011;37579;51.074;17.004;2023-05-07T08:25:43;3.17;;;0.90;;
39750;SDS011;37579;51.074;17.004;2023-05-07T08:28:09;0.68;;;0.50;;
39750;SDS011;37579;51.074;17.004;2023-05-07T08:30:37;0.55;;;0.50;;
39750;SDS011;37579;51.074;17.004;2023-05-07T08:33:03;0.85;;;0.50;;
39750;SDS011;37579;51.074;17.004;2023-05-07T08:35:29;2.35;;;0.60;;
39750;SDS011;37579;51.074;17.004;2023-05-07T08:37:54;3.58;;;0.60;;
39750;SDS011;37579;51.074;17.004;2023-05-07T08:40:24;2.53;;;1.08;;
39750;SDS011;37579;51.074;17.004;2023-05-07T08:42:53;2.33;;;0.73;;
39750;SDS011;37579;51.074;17.004;2023-05-07T08:45:19;1.20;;;0.60;;
39750;SDS011;37579;51.074;17.004;2023-05-07T08:47:54;1.98;;;0.65;;
39750;SDS011;37579;51.074;17.004;2023-05-07T08:50:26;2.78;;;0.80;;
39750;SDS011;37579;51.074;17.004;2023-05-07T08:52:52;1.70;;;0.73;;
39750;SDS011;37579;51.074;17.004;2023-05-07T08:55:19;6.60;;;0.70;;
39750;SDS011;37579;51.074;17.004;2023-05-07T08:57:46;2.33;;;0.60;;
39750;SDS011;37579;51.074;17.004;2023-05-07T09:00:13;1.88;;;0.80;;
39750;SDS011;37579;51.074;17.004;2023-05-07T09:02:41;3.33;;;0.90;;
39750;SDS011;37579;51.074;17.004;2023-05-07T09:05:08;1.40;;;0.60;;
39750;SDS011;37579;51.074;17.004;2023-05-07T09:07:34;3.70;;;0.73;;
39750;SDS011;37579;51.074;17.004;2023-05-07T09:10:03;4.68;;;0.73;;
39750;SDS011;37579;51.074;17.004;2023-05-07T09:12:30;3.42;;;0.60;;
39750;SDS011;37579;51.074;17.004;2023-05-07T09:14:56;3.13;;;0.70;;
39750;SDS011;37579;51.074;17.004;2023-05-07T09:17:23;1.85;;;0.73;;
39750;SDS011;37579;51.074;17.004;2023-05-07T09:19:49;11.00;;;0.95;;
39750;SDS011;37579;51.074;17.004;2023-05-07T09:22:16;1.15;;;0.70;;
39750;SDS011;37579;51.074;17.004;2023-05-07T09:24:51;1.42;;;0.80;;
39750;SDS011;37579;51.074;17.004;2023-05-07T09:27:20;1.80;;;0.75;;
39750;SDS011;37579;51.074;17.004;2023-05-07T09:29:46;4.80;;;1.00;;
39750;SDS011;37579;51.074;17.004;2023-05-07T09:32:14;1.17;;;0.63;;
39750;SDS011;37579;51.074;17.004;2023-05-07T09:34:41;1.10;;;0.73;;
39750;SDS011;37579;51.074;17.004;2023-05-07T09:37:07;1.77;;;0.70;;
39750;SDS011;37579;51.074;17.004;2023-05-07T09:39:41;2.30;;;0.90;;
39750;SDS011;37579;51.074;17.004;2023-05-07T09:42:09;2.90;;;0.85;;
39750;SDS011;37579;51.074;17.004;2023-05-07T09:44:37;2.42;;;0.65;;
39750;SDS011;37579;51.074;17.004;2023-05-07T09:47:07;6.38;;;0.85;;
39750;SDS011;37579;51.074;17.004;2023-05-07T09:49:40;2.88;;;0.90;;
39750;SDS011;37579;51.074;17.004;2023-05-07T09:52:13;5.05;;;1.08;;
39750;SDS011;37579;51.074;17.004;2023-05-07T09:54:45;2.13;;;1.00;;
39750;SDS011;37579;51.074;17.004;2023-05-07T09:57:16;2.35;;;0.93;;
39750;SDS011;37579;51.074;17.004;2023-05-07T09:59:47;4.20;;;1.10;;
39750;SDS011;37579;51.074;17.004;2023-05-07T10:02:17;5.03;;;1.02;;
39750;SDS011;37579;51.074;17.004;2023-05-07T10:04:47;2.13;;;1.13;;
39750;SDS011;37579;51.074;17.004;2023-05-07T10:07:17;2.85;;;1.27;;
39750;SDS011;37579;51.074;17.004;2023-05-07T10:09:44;2.72;;;1.25;;
39750;SDS011;37579;51.074;17.004;2023-05-07T10:12:20;2.58;;;1.40;;
39750;SDS011;37579;51.074;17.004;2023-05-07T10:14:47;5.75;;;1.52;;
39750;SDS011;37579;51.074;17.004;2023-05-07T10:17:16;3.00;;;1.48;;
39750;SDS011;37579;51.074;17.004;2023-05-07T10:19:44;2.58;;;1.35;;
39750;SDS011;37579;51.074;17.004;2023-05-07T10:22:10;3.60;;;1.40;;
39750;SDS011;37579;51.074;17.004;2023-05-07T10:24:42;3.55;;;1.30;;
39750;SDS011;37579;51.074;17.004;2023-05-07T10:27:14;2.20;;;1.38;;
39750;SDS011;37579;51.074;17.004;2023-05-07T10:29:47;3.55;;;1.42;;
39750;SDS011;37579;51.074;17.004;2023-05-07T10:32:51;4.35;;;1.63;;
39750;SDS011;37579;51.074;17.004;2023-05-07T10:35:29;4.68;;;1.80;;
39750;SDS011;37579;51.074;17.004;2023-05-07T10:37:59;4.97;;;1.60;;
39750;SDS011;37579;51.074;17.004;2023-05-07T10:40:30;4.07;;;1.80;;
39750;SDS011;37579;51.074;17.004;2023-05-07T10:42:57;6.25;;;1.85;;
39750;SDS011;37579;51.074;17.004;2023-05-07T10:45:26;3.10;;;2.05;;
39750;SDS011;37579;51.074;17.004;2023-05-07T10:50:41;3.67;;;2.10;;
39750;SDS011;37579;51.074;17.004;2023-05-07T10:58:46;17.75;;;5.32;;
39750;SDS011;37579;51.074;17.004;2023-05-07T11:01:49;9.48;;;4.00;;
39750;SDS011;37579;51.074;17.004;2023-05-07T11:04:25;8.70;;;3.88;;
39750;SDS011;37579;51.074;17.004;2023-05-07T11:15:05;15.05;;;4.90;;
39750;SDS011;37579;51.074;17.004;2023-05-07T11:17:55;15.20;;;4.85;;
39750;SDS011;37579;51.074;17.004;2023-05-07T11:26:30;10.57;;;4.00;;
39750;SDS011;37579;51.074;17.004;2023-05-07T11:29:14;15.38;;;5.32;;
39750;SDS011;37579;51.074;17.004;2023-05-07T11:31:49;9.60;;;4.18;;
39750;SDS011;37579;51.074;17.004;2023-05-07T11:34:20;8.93;;;4.05;;
39750;SDS011;37579;51.074;17.004;2023-05-07T11:36:47;11.05;;;3.83;;
39750;SDS011;37579;51.074;17.004;2023-05-07T11:39:26;9.52;;;3.55;;
39750;SDS011;37579;51.074;17.004;2023-05-07T11:41:58;9.05;;;3.78;;
39750;SDS011;37579;51.074;17.004;2023-05-07T11:44:25;16.75;;;4.55;;
39750;SDS011;37579;51.074;17.004;2023-05-07T11:47:03;9.00;;;4.13;;
39750;SDS011;37579;51.074;17.004;2023-05-07T11:49:30;12.27;;;4.60;;
39750;SDS011;37579;51.074;17.004;2023-05-07T11:51:56;10.82;;;5.22;;
39750;SDS011;37579;51.074;17.004;2023-05-07T11:54:22;20.25;;;9.90;;
39750;SDS011;37579;51.074;17.004;2023-05-07T11:56:48;28.60;;;11.63;;
39750;SDS011;37579;51.074;17.004;2023-05-07T11:59:17;44.38;;;17.92;;
39750;SDS011;37579;51.074;17.004;2023-05-07T12:01:45;47.13;;;20.70;;
39750;SDS011;37579;51.074;17.004;2023-05-07T12:04:12;51.05;;;22.60;;
39750;SDS011;37579;51.074;17.004;2023-05-07T12:06:37;56.65;;;23.60;;
39750;SDS011;37579;51.074;17.004;2023-05-07T12:09:04;57.13;;;25.17;;
39750;SDS011;37579;51.074;17.004;2023-05-07T12:11:32;58.95;;;25.38;;
39750;SDS011;37579;51.074;17.004;2023-05-07T12:13:59;58.22;;;25.88;;
39750;SDS011;37579;51.074;17.004;2023-05-07T12:16:24;49.75;;;25.08;;
39750;SDS011;37579;51.074;17.004;2023-05-07T12:18:51;51.90;;;24.50;;
39750;SDS011;37579;51.074;17.004;2023-05-07T12:21:20;57.38;;;24.60;;
39750;SDS011;37579;51.074;17.004;2023-05-07T12:23:46;52.95;;;25.33;;
39750;SDS011;37579;51.074;17.004;2023-05-07T12:26:12;51.95;;;23.50;;
39750;SDS011;37579;51.074;17.004;2023-05-07T12:28:38;47.33;;;23.67;;
39750;SDS011;37579;51.074;17.004;2023-05-07T12:31:04;43.40;;;20.67;;
39750;SDS011;37579;51.074;17.004;2023-05-07T12:33:30;39.75;;;19.50;;
39750;SDS011;37579;51.074;17.004;2023-05-07T12:35:57;39.45;;;20.17;;
39750;SDS011;37579;51.074;17.004;2023-05-07T12:38:23;44.35;;;19.70;;
39750;SDS011;37579;51.074;17.004;2023-05-07T12:40:50;37.65;;;17.58;;
39750;SDS011;37579;51.074;17.004;2023-05-07T12:43:20;30.50;;;15.90;;
39750;SDS011;37579;51.074;17.004;2023-05-07T12:45:49;30.83;;;16.48;;
39750;SDS011;37579;51.074;17.004;2023-05-07T12:48:16;27.73;;;15.38;;
39750;SDS011;37579;51.074;17.004;2023-05-07T12:50:42;30.80;;;14.65;;
39750;SDS011;37579;51.074;17.004;2023-05-07T12:53:09;29.02;;;14.32;;
39750;SDS011;37579;51.074;17.004;2023-05-07T12:55:40;28.58;;;14.40;;
39750;SDS011;37579;51.074;17.004;2023-05-07T12:58:06;29.00;;;13.82;;
39750;SDS011;37579;51.074;17.004;2023-05-07T13:00:35;28.67;;;13.25;;
39750;SDS011;37579;51.074;17.004;2023-05-07T13:03:02;26.77;;;13.43;;
39750;SDS011;37579;51.074;17.004;2023-05-07T13:05:28;27.92;;;12.77;;
39750;SDS011;37579;51.074;17.004;2023-05-07T13:07:54;22.35;;;10.82;;
39750;SDS011;37579;51.074;17.004;2023-05-07T13:10:21;23.70;;;10.32;;
39750;SDS011;37579;51.074;17.004;2023-05-07T13:12:48;20.67;;;10.40;;
39750;SDS011;37579;51.074;17.004;2023-05-07T13:15:14;18.42;;;10.65;;
39750;SDS011;37579;51.074;17.004;2023-05-07T13:17:40;16.58;;;9.32;;
39750;SDS011;37579;51.074;17.004;2023-05-07T13:20:06;16.48;;;8.95;;
39750;SDS011;37579;51.074;17.004;2023-05-07T13:22:34;17.33;;;8.40;;
39750;SDS011;37579;51.074;17.004;2023-05-07T13:25:00;19.02;;;8.93;;
39750;SDS011;37579;51.074;17.004;2023-05-07T13:27:26;21.92;;;8.32;;
39750;SDS011;37579;51.074;17.004;2023-05-07T13:29:51;30.52;;;10.20;;
39750;SDS011;37579;51.074;17.004;2023-05-07T13:32:17;35.95;;;10.85;;
39750;SDS011;37579;51.074;17.004;2023-05-07T13:34:43;34.45;;;10.18;;
39750;SDS011;37579;51.074;17.004;2023-05-07T13:37:09;25.20;;;9.38;;
39750;SDS011;37579;51.074;17.004;2023-05-07T13:39:34;20.33;;;8.50;;
39750;SDS011;37579;51.074;17.004;2023-05-07T13:42:00;19.10;;;8.00;;
39750;SDS011;37579;51.074;17.004;2023-05-07T13:44:26;20.45;;;6.80;;
39750;SDS011;37579;51.074;17.004;2023-05-07T13:46:52;18.48;;;6.93;;
39750;SDS011;37579;51.074;17.004;2023-05-07T13:49:18;25.40;;;6.97;;
39750;SDS011;37579;51.074;17.004;2023-05-07T13:51:43;19.52;;;7.05;;
39750;SDS011;37579;51.074;17.004;2023-05-07T13:54:09;17.58;;;6.57;;
39750;SDS011;37579;51.074;17.004;2023-05-07T13:56:35;13.40;;;5.47;;
39750;SDS011;37579;51.074;17.004;2023-05-07T13:59:01;12.80;;;5.25;;
39750;SDS011;37579;51.074;17.004;2023-05-07T14:01:27;19.73;;;5.43;;
39750;SDS011;37579;51.074;17.004;2023-05-07T14:03:53;13.07;;;5.45;;
39750;SDS011;37579;51.074;17.004;2023-05-07T14:06:19;15.02;;;4.93;;
39750;SDS011;37579;51.074;17.004;2023-05-07T14:08:45;11.65;;;4.88;;
39750;SDS011;37579;51.074;17.004;2023-05-07T14:11:10;12.68;;;5.15;;
39750;SDS011;37579;51.074;17.004;2023-05-07T14:13:36;15.52;;;5.05;;
39750;SDS011;37579;51.074;17.004;2023-05-07T14:16:03;10.55;;;3.80;;
39750;SDS011;37579;51.074;17.004;2023-05-07T14:18:29;12.93;;;4.25;;
39750;SDS011;37579;51.074;17.004;2023-05-07T14:20:55;12.60;;;4.10;;
39750;SDS011;37579;51.074;17.004;2023-05-07T14:23:21;11.10;;;3.75;;
39750;SDS011;37579;51.074;17.004;2023-05-07T14:25:51;9.32;;;3.33;;
39750;SDS011;37579;51.074;17.004;2023-05-07T14:28:18;5.47;;;3.08;;
39750;SDS011;37579;51.074;17.004;2023-05-07T14:30:44;6.18;;;3.10;;
39750;SDS011;37579;51.074;17.004;2023-05-07T14:33:10;7.20;;;3.13;;
39750;SDS011;37579;51.074;17.004;2023-05-07T14:35:36;5.78;;;3.20;;
39750;SDS011;37579;51.074;17.004;2023-05-07T14:38:02;4.50;;;2.60;;
39750;SDS011;37579;51.074;17.004;2023-05-07T14:40:27;6.50;;;3.00;;
39750;SDS011;37579;51.074;17.004;2023-05-07T14:42:53;4.43;;;2.80;;
39750;SDS011;37579;51.074;17.004;2023-05-07T14:45:20;4.38;;;2.45;;
39750;SDS011;37579;51.074;17.004;2023-05-07T14:47:46;4.93;;;2.45;;
39750;SDS011;37579;51.074;17.004;2023-05-07T14:50:12;5.50;;;2.50;;
39750;SDS011;37579;51.074;17.004;2023-05-07T14:52:38;3.53;;;2.28;;
39750;SDS011;37579;51.074;17.004;2023-05-07T14:55:04;4.32;;;2.70;;
39750;SDS011;37579;51.074;17.004;2023-05-07T14:57:30;5.22;;;2.88;;